Rbd Italia — ICQC — position and weather

sailwx.info

Track history (hours):
 
Tides and Currents Weather Stations Pressure Air Temp Water Temp Dewpoint Dewpoint Depression Visibility Wind Speed Wind Dir Waves Ship Positions

Rbd Italia

Last reported at 2015-Jul-12 01:11 UTC. Time now 2015-Jul-31 11:19 UTC.
Position S 34°48' W 057°29'.
Warning: this ship's position is 19 days out of date.

Length 229 m; draft 10.4 m.

Type: Cargo ship. MMSI: 247303200.

Date/timePositionNaut miles runAvg speedWind from/ knotsBaromVisibWave heightAir tempDewpointWater temp
2015-Jul-12 01:11S 34°48' W 057°29'1211.7
2015-Jul-12 00:10S 34°44' W 057°43'711.0
2015-Jul-11 23:33S 34°43' W 057°51'10 9.8
2015-Jul-11 22:32S 34°40' W 058°03'1110.7
2015-Jul-11 21:33S 34°36' W 058°15'  
2015-Jul-08 04:33S 33°58' W 059°11'0 0.0
2015-Jul-08 03:33S 33°58' W 059°11'0 0.0
2015-Jul-08 02:31S 33°58' W 059°11'0 0.0
2015-Jul-08 01:33S 33°58' W 059°11'1 0.6
2015-Jul-08 00:33S 33°58' W 059°11'14 6.9
2015-Jul-07 22:31S 34°08' W 058°58'5 5.4
2015-Jul-07 21:33S 34°11' W 058°53'7 7.5
2015-Jul-07 20:33S 34°14' W 058°45'10 9.9
2015-Jul-07 19:33S 34°17' W 058°34'9 8.5
2015-Jul-07 18:34S 34°24' W 058°27'9 9.3
2015-Jul-07 17:33S 34°31' W 058°21'1010.1
2015-Jul-07 16:33S 34°37' W 058°11'1110.9
2015-Jul-07 15:34S 34°41' W 057°58'10 9.7
2015-Jul-07 14:34S 34°44' W 057°47'8 8.0
2015-Jul-07 13:33S 34°45' W 057°38'9 8.5
2015-Jul-07 12:33S 34°48' W 057°28'1212.2
2015-Jul-07 11:33S 34°56' W 057°16'  
Track history (hours):
 
Tides and Currents Weather Stations Pressure Air Temp Water Temp Dewpoint Dewpoint Depression Visibility Wind Speed Wind Dir Waves Ship Positions

Rbd Italia

Last reported at 2015-Jul-12 01:11 UTC. Time now 2015-Jul-31 11:19 UTC.
Position S 34°48' W 057°29'.
Warning: this ship's position is 19 days out of date.

Length 229 m; draft 10.4 m.

Type: Cargo ship. MMSI: 247303200.

Date/timePositionNaut miles runAvg speedWind from/ knotsBaromVisibWave heightAir tempDewpointWater temp
2015-Jul-12 01:11S 34°48' W 057°29'1211.7
2015-Jul-12 00:10S 34°44' W 057°43'711.0
2015-Jul-11 23:33S 34°43' W 057°51'10 9.8
2015-Jul-11 22:32S 34°40' W 058°03'1110.7
2015-Jul-11 21:33S 34°36' W 058°15'  
2015-Jul-08 04:33S 33°58' W 059°11'0 0.0
2015-Jul-08 03:33S 33°58' W 059°11'0 0.0
2015-Jul-08 02:31S 33°58' W 059°11'0 0.0
2015-Jul-08 01:33S 33°58' W 059°11'1 0.6
2015-Jul-08 00:33S 33°58' W 059°11'14 6.9
2015-Jul-07 22:31S 34°08' W 058°58'5 5.4
2015-Jul-07 21:33S 34°11' W 058°53'7 7.5
2015-Jul-07 20:33S 34°14' W 058°45'10 9.9
2015-Jul-07 19:33S 34°17' W 058°34'9 8.5
2015-Jul-07 18:34S 34°24' W 058°27'9 9.3
2015-Jul-07 17:33S 34°31' W 058°21'1010.1
2015-Jul-07 16:33S 34°37' W 058°11'1110.9
2015-Jul-07 15:34S 34°41' W 057°58'10 9.7
2015-Jul-07 14:34S 34°44' W 057°47'8 8.0
2015-Jul-07 13:33S 34°45' W 057°38'9 8.5
2015-Jul-07 12:33S 34°48' W 057°28'1212.2
2015-Jul-07 11:33S 34°56' W 057°16'  

Dump ship's entire track history